Time;durP1;ratioP1;P1;durP2;ratioP2;P2;SDS_P1;SDS_P2;PMS_P1;PMS_P2;Temp;Humidity;BMP_temperature;BMP_pressure;BME280_temperature;BME280_humidity;BME280_pressure;Samples;Min_cycle;Max_cycle;Signal;HPM_P1;HPM_P2
2022/07/15 00:01:33;;;;;;;;;3.00;3.00;;;;;21.90;41.70;101898.78;5080467;28;45467;-67
2022/07/15 00:03:59;;;;;;;;;2.33;2.33;;;;;21.82;41.47;101904.81;5080439;27;45259;-67
2022/07/15 00:06:25;;;;;;;;;5.00;4.00;;;;;21.79;41.55;101905.06;5080537;27;45452;-67
2022/07/15 00:08:50;;;;;;;;;5.00;4.00;;;;;21.77;42.64;101904.31;5080563;27;45473;-67
2022/07/15 00:11:16;;;;;;;;;6.00;4.00;;;;;21.70;42.59;101912.09;5080135;27;45402;-67
2022/07/15 00:13:41;;;;;;;;;3.33;3.33;;;;;21.66;42.02;101907.06;5080241;27;45268;-67
2022/07/15 00:16:06;;;;;;;;;4.00;2.67;;;;;21.60;42.23;101906.56;5079608;27;66533;-67
2022/07/15 00:18:32;;;;;;;;;3.00;3.00;;;;;21.54;42.71;101915.16;5080565;27;45356;-67
2022/07/15 00:20:57;;;;;;;;;3.00;3.00;;;;;21.52;41.61;101922.50;5079934;27;57136;-67
2022/07/15 00:23:22;;;;;;;;;5.00;5.00;;;;;21.47;42.87;101916.56;5079598;27;47121;-67
2022/07/15 00:25:48;;;;;;;;;3.00;3.00;;;;;21.44;41.83;101923.09;5079402;27;66288;-67
2022/07/15 00:28:13;;;;;;;;;2.00;2.00;;;;;21.40;42.51;101927.03;5080064;27;45338;-67
2022/07/15 00:30:40;;;;;;;;;5.00;3.00;;;;;21.31;43.06;101917.81;5080020;27;46037;-67
2022/07/15 00:33:06;;;;;;;;;5.33;3.67;;;;;21.26;43.49;101922.72;5080198;27;45349;-67
2022/07/15 00:35:33;;;;;;;;;4.33;2.67;;;;;21.24;43.26;101927.38;5080273;27;45777;-67
2022/07/15 00:38:01;;;;;;;;;3.00;3.00;;;;;21.21;43.10;101929.44;5080132;27;45361;-69
2022/07/15 00:40:26;;;;;;;;;3.33;3.33;;;;;21.11;43.42;101934.72;5079515;27;45424;-67
2022/07/15 00:42:52;;;;;;;;;3.67;3.67;;;;;21.01;43.65;101931.00;5079934;27;45321;-67
2022/07/15 00:45:20;;;;;;;;;3.00;3.00;;;;;20.98;44.04;101937.50;5080180;27;45516;-68
2022/07/15 00:47:47;;;;;;;;;4.33;3.00;;;;;21.00;43.44;101940.94;5080118;27;45513;-68
2022/07/15 00:50:14;;;;;;;;;4.67;3.00;;;;;21.09;43.63;101947.50;5079719;27;46219;-68
2022/07/15 00:52:41;;;;;;;;;2.67;2.67;;;;;21.11;43.48;101953.66;5079799;27;45420;-68
2022/07/15 00:55:09;;;;;;;;;3.33;3.00;;;;;21.07;43.63;101950.31;5079980;27;45418;-68
2022/07/15 00:57:37;;;;;;;;;5.67;5.67;;;;;20.96;43.77;101956.56;5079837;27;45397;-67
2022/07/15 01:00:04;;;;;;;;;2.00;2.00;;;;;20.91;43.32;101955.16;5079659;27;45274;-67
2022/07/15 01:02:31;;;;;;;;;3.33;2.33;;;;;20.87;43.78;101965.38;5079470;27;45394;-67
2022/07/15 01:04:58;;;;;;;;;3.67;3.67;;;;;20.78;44.53;101958.81;5079974;27;45499;-67
2022/07/15 01:07:23;;;;;;;;;4.33;2.00;;;;;20.77;44.14;101958.94;5078432;28;45819;-67
2022/07/15 01:09:49;;;;;;;;;3.00;3.00;;;;;20.75;43.52;101956.31;5078628;27;73690;-67
2022/07/15 01:12:14;;;;;;;;;3.00;3.00;;;;;20.74;43.78;101964.53;5078667;27;69765;-67
2022/07/15 01:14:39;;;;;;;;;3.00;3.00;;;;;20.70;44.10;101968.47;5078665;27;67729;-67
2022/07/15 01:17:11;;;;;;;;;2.33;2.33;;;;;20.65;43.67;101975.06;5078905;27;64257;-68
2022/07/15 01:19:37;;;;;;;;;2.00;2.00;;;;;20.61;43.29;101976.25;5079475;27;46300;-67
2022/07/15 01:22:04;;;;;;;;;2.67;2.67;;;;;20.59;44.07;101972.78;5079301;27;45405;-67
2022/07/15 01:24:29;;;;;;;;;3.33;2.33;;;;;20.61;43.63;101975.38;5079662;28;45323;-68
2022/07/15 01:26:55;;;;;;;;;3.33;2.67;;;;;20.63;43.68;101973.44;5079615;27;45389;-68
2022/07/15 01:29:20;;;;;;;;;2.00;2.00;;;;;20.66;43.76;101982.19;5078910;28;45186;-67
2022/07/15 01:31:45;;;;;;;;;3.00;1.00;;;;;20.65;43.01;101976.91;5078433;27;71139;-67
2022/07/15 01:34:11;;;;;;;;;2.33;2.33;;;;;20.65;43.11;101974.19;5080009;27;45243;-67
2022/07/15 01:36:36;;;;;;;;;3.00;3.00;;;;;20.70;43.31;101976.56;5082571;27;45361;-68
2022/07/15 01:39:02;;;;;;;;;4.67;2.00;;;;;20.66;43.36;101975.91;5081925;27;72086;-68
2022/07/15 01:41:27;;;;;;;;;4.00;4.00;;;;;20.62;43.42;101982.50;5082756;27;45361;-68
2022/07/15 01:43:53;;;;;;;;;2.00;2.00;;;;;20.55;43.79;101982.09;5082045;27;59094;-68
2022/07/15 01:46:18;;;;;;;;;2.33;2.33;;;;;20.46;43.04;101975.53;5081917;27;65855;-68
2022/07/15 01:51:29;;;;;;;;;2.00;2.00;;;;;20.38;43.40;101975.25;5081654;28;45278;-68
2022/07/15 01:53:54;;;;;;;;;3.00;2.00;;;;;20.32;43.41;101976.56;5082641;27;45423;-68
2022/07/15 01:56:20;;;;;;;;;3.33;3.33;;;;;20.32;43.30;101968.47;5082609;27;45398;-67
2022/07/15 01:58:45;;;;;;;;;2.00;2.00;;;;;20.29;43.29;101968.66;5082119;27;46269;-67
2022/07/15 02:01:11;;;;;;;;;7.00;4.00;;;;;20.22;43.97;101969.22;5081444;27;67957;-67
2022/07/15 02:03:36;;;;;;;;;4.00;2.33;;;;;20.15;43.82;101971.50;5082526;27;47739;-67
2022/07/15 02:06:02;;;;;;;;;4.33;3.00;;;;;20.14;43.38;101964.38;5081841;27;61684;-67
2022/07/15 02:08:27;;;;;;;;;1.00;1.00;;;;;20.11;43.41;101961.91;5082126;27;45371;-67
2022/07/15 02:10:52;;;;;;;;;2.00;2.00;;;;;20.04;43.37;101958.81;5081957;27;51992;-67
2022/07/15 02:13:18;;;;;;;;;2.00;2.00;;;;;19.98;43.64;101962.78;5082327;27;45394;-67
2022/07/15 02:15:43;;;;;;;;;1.00;1.00;;;;;19.92;43.42;101965.94;5082226;27;45422;-68
2022/07/15 02:18:10;;;;;;;;;2.33;2.33;;;;;19.88;43.52;101968.97;5082070;27;46251;-67
2022/07/15 02:20:36;;;;;;;;;4.00;4.00;;;;;19.78;44.29;101961.47;5082157;27;45462;-68
2022/07/15 02:23:01;;;;;;;;;2.00;2.00;;;;;19.73;44.27;101963.66;5082117;27;45310;-67
2022/07/15 02:25:32;;;;;;;;;4.33;3.00;;;;;19.70;43.77;101965.69;5082358;27;45357;-67
2022/07/15 02:28:00;;;;;;;;;2.00;2.00;;;;;19.69;44.08;101969.38;5081592;27;46324;-67
2022/07/15 02:30:27;;;;;;;;;3.00;3.00;;;;;19.66;43.98;101965.91;5081753;27;45457;-68
2022/07/15 02:32:52;;;;;;;;;0.67;0.67;;;;;19.67;44.09;101966.78;5082116;27;45421;-67
2022/07/15 02:35:18;;;;;;;;;2.00;2.00;;;;;19.61;44.28;101973.47;5081941;27;45786;-68
2022/07/15 02:37:44;;;;;;;;;1.67;1.00;;;;;19.52;44.84;101963.31;5081791;27;45362;-68
2022/07/15 02:40:10;;;;;;;;;4.00;2.00;;;;;19.42;45.63;101970.31;5081938;27;45518;-67
2022/07/15 02:42:35;;;;;;;;;3.00;3.00;;;;;19.37;45.09;101969.78;5081856;27;45377;-67
2022/07/15 02:45:01;;;;;;;;;3.00;3.00;;;;;19.36;44.90;101959.94;5080724;27;68995;-67
2022/07/15 02:47:27;;;;;;;;;4.33;2.00;;;;;19.32;45.73;101956.59;5080540;28;45399;-67
2022/07/15 02:49:52;;;;;;;;;3.00;3.00;;;;;19.33;44.85;101966.41;5080627;27;65123;-67
2022/07/15 02:52:17;;;;;;;;;1.00;1.00;;;;;19.32;44.99;101960.19;5081301;27;55228;-67
2022/07/15 02:54:43;;;;;;;;;3.67;3.67;;;;;19.28;44.95;101974.84;5080803;27;67060;-67
2022/07/15 02:57:08;;;;;;;;;4.00;4.00;;;;;19.28;44.92;101973.97;5080646;27;72539;-67
2022/07/15 02:59:33;;;;;;;;;3.67;3.67;;;;;19.27;45.06;101983.91;5080361;27;67055;-68
2022/07/15 03:01:59;;;;;;;;;4.67;3.33;;;;;19.27;45.53;101980.34;5081730;27;45422;-69
2022/07/15 03:04:24;;;;;;;;;3.67;3.00;;;;;19.28;45.19;101982.06;5081663;27;45542;-68
2022/07/15 03:06:49;;;;;;;;;4.00;4.00;;;;;19.31;44.62;101987.25;5080357;27;75065;-68
2022/07/15 03:09:15;;;;;;;;;4.00;4.00;;;;;19.37;44.65;101986.81;5080429;27;66720;-68
2022/07/15 03:11:40;;;;;;;;;3.00;3.00;;;;;19.38;44.77;101987.69;5080486;27;66718;-68
2022/07/15 03:14:06;;;;;;;;;3.00;3.00;;;;;19.38;44.80;101988.56;5080672;27;63079;-68
2022/07/15 03:16:31;;;;;;;;;1.67;1.67;;;;;19.41;44.84;101993.75;5081250;27;46073;-68
2022/07/15 03:18:57;;;;;;;;;3.00;3.00;;;;;19.37;45.49;101986.81;5080506;27;68017;-68
2022/07/15 03:21:22;;;;;;;;;6.00;3.00;;;;;19.31;45.09;101998.06;5080217;27;62137;-68
2022/07/15 03:23:47;;;;;;;;;3.33;3.00;;;;;19.27;44.53;102002.78;5080346;27;68811;-68
2022/07/15 03:26:13;;;;;;;;;3.67;3.00;;;;;19.30;45.15;102010.66;5081060;27;46047;-68
2022/07/15 03:28:38;;;;;;;;;2.33;2.33;;;;;19.29;45.00;102008.91;5079823;27;71704;-68
2022/07/15 03:31:04;;;;;;;;;5.00;5.00;;;;;19.27;45.21;102000.09;5080206;27;68308;-68
2022/07/15 03:33:29;;;;;;;;;4.00;2.00;;;;;19.24;45.38;102002.13;5081040;28;45223;-68
2022/07/15 03:35:54;;;;;;;;;4.00;3.00;;;;;19.17;45.14;102001.69;5080091;27;70115;-68
2022/07/15 03:38:20;;;;;;;;;2.33;2.33;;;;;19.12;45.10;101996.56;5079677;27;63170;-68
2022/07/15 03:40:45;;;;;;;;;1.67;1.67;;;;;19.10;45.48;101997.66;5081173;27;45720;-68
2022/07/15 03:43:10;;;;;;;;;4.33;4.00;;;;;19.07;45.62;101987.09;5080691;27;45359;-68
2022/07/15 03:45:36;;;;;;;;;3.67;3.00;;;;;19.01;45.76;101986.53;5080021;27;71084;-68
2022/07/15 03:48:01;;;;;;;;;4.33;4.00;;;;;18.97;45.75;101978.75;5080674;27;45329;-68
2022/07/15 03:50:26;;;;;;;;;5.33;5.33;;;;;18.95;45.75;101976.16;5081002;27;45370;-68
2022/07/15 03:52:52;;;;;;;;;7.00;5.00;;;;;18.99;45.57;101984.91;5080020;27;61673;-68
2022/07/15 03:55:17;;;;;;;;;4.33;3.00;;;;;19.04;45.93;101980.06;5079820;27;69858;-68
2022/07/15 03:57:42;;;;;;;;;4.00;3.00;;;;;19.05;45.90;101980.94;5078613;27;69580;-68
2022/07/15 04:00:08;;;;;;;;;3.00;3.00;;;;;18.97;46.01;101984.16;5080006;27;62801;-68
2022/07/15 04:02:33;;;;;;;;;3.00;3.00;;;;;18.87;45.98;101989.25;5080687;28;45504;-68
2022/07/15 04:04:59;;;;;;;;;4.00;4.00;;;;;18.79;46.89;101991.59;5079745;27;69292;-68
2022/07/15 04:07:24;;;;;;;;;4.67;4.00;;;;;18.74;46.67;101991.88;5079509;27;67538;-68
2022/07/15 04:09:49;;;;;;;;;5.67;3.67;;;;;18.71;46.75;101996.59;5079790;27;63454;-68
2022/07/15 04:12:15;;;;;;;;;4.00;4.00;;;;;18.67;46.68;101994.13;5079642;27;65062;-69
2022/07/15 04:14:40;;;;;;;;;5.00;4.00;;;;;18.65;47.14;102000.59;5079312;27;71395;-68
2022/07/15 04:17:05;;;;;;;;;4.00;2.33;;;;;18.60;47.46;101998.19;5079743;27;62279;-68
2022/07/15 04:19:31;;;;;;;;;3.33;3.33;;;;;18.55;47.26;101999.44;5080626;27;45648;-68
2022/07/15 04:21:57;;;;;;;;;4.00;4.00;;;;;18.52;47.34;101995.13;5080118;27;45354;-68
2022/07/15 04:24:22;;;;;;;;;4.00;4.00;;;;;18.50;47.70;102010.53;5080256;27;45382;-68
2022/07/15 04:26:47;;;;;;;;;4.67;3.67;;;;;18.46;47.89;102007.16;5079341;27;69836;-68
2022/07/15 04:29:13;;;;;;;;;5.33;3.67;;;;;18.46;47.38;102006.28;5079089;27;68083;-68
2022/07/15 04:31:38;;;;;;;;;2.33;2.33;;;;;18.50;47.03;102014.09;5080134;27;45338;-68
2022/07/15 04:34:03;;;;;;;;;3.00;3.00;;;;;18.52;47.59;102011.28;5079571;27;54901;-69
2022/07/15 04:36:28;;;;;;;;;2.00;2.00;;;;;18.53;47.56;102007.63;5079183;27;73159;-69
2022/07/15 04:38:54;;;;;;;;;4.00;4.00;;;;;18.55;48.27;102018.31;5080254;27;45372;-68
2022/07/15 04:41:19;;;;;;;;;3.00;2.00;;;;;18.54;47.43;102012.06;5080180;27;45436;-68
2022/07/15 04:43:45;;;;;;;;;2.00;2.00;;;;;18.57;47.56;102019.09;5079437;27;54483;-68
2022/07/15 04:46:10;;;;;;;;;5.67;5.67;;;;;18.57;47.76;102013.69;5080137;27;45731;-69
2022/07/15 04:51:20;;;;;;;;;3.67;3.67;;;;;18.49;48.15;102019.56;5079980;28;45380;-69
2022/07/15 04:53:46;;;;;;;;;3.00;3.00;;;;;18.52;48.21;102019.38;5079740;27;45346;-68
2022/07/15 04:56:12;;;;;;;;;6.00;5.00;;;;;18.50;48.66;102018.63;5079762;27;45348;-69
2022/07/15 04:58:37;;;;;;;;;1.00;1.00;;;;;18.49;48.43;102012.34;5078369;28;45410;-69
2022/07/15 05:01:03;;;;;;;;;4.00;3.33;;;;;18.46;48.91;102022.44;5079308;27;53460;-69
2022/07/15 05:03:28;;;;;;;;;4.00;4.00;;;;;18.44;48.60;102027.09;5078954;27;64322;-68
2022/07/15 05:05:53;;;;;;;;;2.67;2.67;;;;;18.43;49.10;102028.91;5078721;27;73247;-69
2022/07/15 05:08:20;;;;;;;;;4.67;4.33;;;;;18.40;49.46;102025.56;5078704;27;67434;-68
2022/07/15 05:10:46;;;;;;;;;3.33;3.33;;;;;18.39;48.97;102026.50;5082508;27;45422;-69
2022/07/15 05:13:11;;;;;;;;;3.33;2.00;;;;;18.45;49.28;102031.53;5082901;27;46012;-68
2022/07/15 05:15:36;;;;;;;;;6.00;3.33;;;;;18.46;48.77;102033.22;5082215;27;68977;-68
2022/07/15 05:18:02;;;;;;;;;4.00;4.00;;;;;18.49;49.32;102033.03;5083429;27;45236;-69
2022/07/15 05:20:27;;;;;;;;;3.00;3.00;;;;;18.50;49.28;102043.72;5083141;28;45605;-69
2022/07/15 05:22:53;;;;;;;;;5.00;3.67;;;;;18.54;48.98;102036.31;5082354;27;65383;-69
2022/07/15 05:25:18;;;;;;;;;5.67;4.00;;;;;18.54;49.21;102030.03;5083065;27;45301;-69
2022/07/15 05:27:44;;;;;;;;;4.33;4.33;;;;;18.57;49.72;102035.25;5082074;27;45444;-69
2022/07/15 05:30:12;;;;;;;;;5.67;3.00;;;;;18.61;49.35;102040.31;5082727;27;45773;-68
2022/07/15 05:32:37;;;;;;;;;4.00;3.00;;;;;18.65;49.45;102044.53;5082416;27;45440;-68
2022/07/15 05:35:03;;;;;;;;;5.67;5.00;;;;;18.64;49.00;102045.53;5081482;27;73213;-69
2022/07/15 05:37:28;;;;;;;;;2.00;2.00;;;;;18.65;49.76;102052.63;5082593;27;45510;-69
2022/07/15 05:39:53;;;;;;;;;4.33;4.33;;;;;18.68;49.33;102055.16;5081912;28;67098;-70
2022/07/15 05:42:22;;;;;;;;;3.00;3.00;;;;;18.67;50.01;102064.19;5080887;27;57499;-69
2022/07/15 05:44:48;;;;;;;;;5.33;5.00;;;;;18.68;49.46;102067.72;5081420;27;45291;-69
2022/07/15 05:47:13;;;;;;;;;4.67;4.67;;;;;18.69;49.93;102061.38;5081890;27;45336;-69
2022/07/15 05:49:39;;;;;;;;;4.00;4.00;;;;;18.71;49.85;102067.56;5081356;27;45514;-69
2022/07/15 05:52:04;;;;;;;;;4.33;3.00;;;;;18.76;49.88;102075.31;5073090;27;57891;-69
2022/07/15 05:54:30;;;;;;;;;3.67;3.67;;;;;18.80;50.37;102071.50;5073571;27;45340;-69
2022/07/15 05:56:55;;;;;;;;;7.67;6.00;;;;;18.80;49.98;102060.72;5078237;28;45720;-69
2022/07/15 05:59:21;;;;;;;;;7.33;6.33;;;;;18.74;50.01;102063.81;5081164;27;59468;-69
2022/07/15 06:01:46;;;;;;;;;6.33;4.67;;;;;18.65;50.73;102068.78;5081458;27;68545;-69
2022/07/15 06:04:13;;;;;;;;;9.00;7.00;;;;;18.61;50.09;102063.72;5082338;27;45398;-68
2022/07/15 06:06:38;;;;;;;;;6.67;5.00;;;;;18.60;50.38;102062.84;5082078;27;45393;-68
2022/07/15 06:09:04;;;;;;;;;4.67;4.67;;;;;18.64;50.24;102063.50;5081930;27;45505;-68
2022/07/15 06:11:29;;;;;;;;;7.00;5.67;;;;;18.71;50.37;102058.59;5078975;28;57420;-69
2022/07/15 06:13:54;;;;;;;;;6.00;5.00;;;;;18.77;49.94;102061.78;5078592;27;71699;-69
2022/07/15 06:16:20;;;;;;;;;5.00;5.00;;;;;18.86;50.30;102057.59;5080334;27;63772;-68
2022/07/15 06:18:45;;;;;;;;;4.33;4.33;;;;;18.93;49.73;102055.38;5080057;27;63618;-67
2022/07/15 06:21:11;;;;;;;;;4.33;4.33;;;;;19.01;50.13;102051.22;5080081;27;46209;-68
2022/07/15 06:23:36;;;;;;;;;3.67;3.00;;;;;19.12;50.08;102063.13;5080335;28;45344;-68
2022/07/15 06:26:02;;;;;;;;;4.00;4.00;;;;;19.21;49.62;102064.38;5080552;28;45345;-68
2022/07/15 06:28:27;;;;;;;;;5.00;3.00;;;;;19.26;49.09;102059.53;5081692;27;45370;-67
2022/07/15 06:30:53;;;;;;;;;4.00;4.00;;;;;19.33;48.88;102056.31;5081493;27;45960;-67
2022/07/15 06:33:18;;;;;;;;;3.00;3.00;;;;;19.43;48.67;102064.63;5081647;27;45486;-69
2022/07/15 06:35:44;;;;;;;;;3.67;2.33;;;;;19.45;48.28;102059.13;5081347;27;52887;-69
2022/07/15 06:38:09;;;;;;;;;6.00;4.67;;;;;19.47;48.03;102073.41;5081708;27;45405;-68
2022/07/15 06:40:35;;;;;;;;;6.00;4.33;;;;;19.49;47.79;102074.16;5081825;27;46043;-68
2022/07/15 06:43:00;;;;;;;;;4.67;4.67;;;;;19.58;47.69;102070.84;5081549;27;45417;-68
2022/07/15 06:45:25;;;;;;;;;5.00;5.00;;;;;19.67;47.69;102072.03;5080731;27;63669;-69
2022/07/15 06:47:51;;;;;;;;;6.00;3.67;;;;;19.79;47.22;102075.69;5081409;27;45487;-68
2022/07/15 06:50:16;;;;;;;;;6.33;5.67;;;;;19.90;47.37;102066.91;5080361;27;69371;-69
2022/07/15 06:52:41;;;;;;;;;3.00;3.00;;;;;20.05;46.92;102067.66;5081305;27;45425;-69
2022/07/15 06:55:07;;;;;;;;;3.67;3.67;;;;;20.20;46.84;102065.72;5081080;27;48219;-69
2022/07/15 06:57:33;;;;;;;;;2.00;2.00;;;;;20.38;46.23;102074.38;5080646;27;45547;-69
2022/07/15 07:00:00;;;;;;;;;4.33;4.33;;;;;20.53;45.63;102078.63;5081272;27;45381;-70
2022/07/15 07:02:26;;;;;;;;;7.00;4.67;;;;;20.72;44.62;102072.78;5081260;27;45381;-69
2022/07/15 07:04:51;;;;;;;;;7.00;4.00;;;;;20.81;44.39;102066.72;5080929;27;57168;-70
2022/07/15 07:07:16;;;;;;;;;4.00;4.00;;;;;20.94;43.41;102068.53;5080547;27;64589;-71
2022/07/15 07:09:42;;;;;;;;;4.00;3.00;;;;;21.11;43.84;102069.97;5081218;27;46064;-70
2022/07/15 07:12:07;;;;;;;;;3.00;3.00;;;;;21.31;42.10;102069.34;5081262;27;45343;-71
2022/07/15 07:14:33;;;;;;;;;2.67;2.67;;;;;21.53;42.55;102073.09;5081117;27;45286;-70
2022/07/15 07:16:58;;;;;;;;;4.33;4.00;;;;;21.74;41.94;102070.59;5080481;27;63154;-71
2022/07/15 07:19:23;;;;;;;;;2.00;2.00;;;;;21.95;41.47;102067.19;5080048;27;70302;-71
2022/07/15 07:21:49;;;;;;;;;3.00;3.00;;;;;22.23;41.27;102074.00;5080886;27;45407;-71
2022/07/15 07:24:14;;;;;;;;;1.00;1.00;;;;;22.44;39.58;102067.88;5080149;27;67296;-72
2022/07/15 07:26:40;;;;;;;;;5.67;4.00;;;;;22.60;39.12;102062.91;5081221;27;45355;-71
2022/07/15 07:29:05;;;;;;;;;2.00;2.00;;;;;22.85;39.50;102060.03;5079296;28;46331;-71
2022/07/15 07:31:31;;;;;;;;;3.00;3.00;;;;;23.15;38.83;102069.38;5080118;27;45711;-71
2022/07/15 07:33:57;;;;;;;;;4.33;3.33;;;;;23.41;36.87;102068.03;5079412;27;61497;-71
2022/07/15 07:36:23;;;;;;;;;4.67;3.00;;;;;23.67;37.29;102064.06;5080739;27;45413;-72
2022/07/15 07:38:49;;;;;;;;;6.00;3.67;;;;;23.98;35.63;102064.16;5080393;27;47610;-72
2022/07/15 07:41:15;;;;;;;;;3.00;3.00;;;;;24.16;35.28;102054.38;5080899;27;45366;-72
2022/07/15 07:43:40;;;;;;;;;1.00;1.00;;;;;24.43;35.54;102056.50;5080643;27;45454;-72
2022/07/15 07:46:06;;;;;;;;;2.33;2.33;;;;;24.85;34.13;102050.06;5080674;27;45468;-72
2022/07/15 07:48:32;;;;;;;;;4.00;4.00;;;;;25.33;34.53;102061.09;5079642;27;54819;-72
2022/07/15 07:50:57;;;;;;;;;1.67;1.67;;;;;25.76;33.37;102055.22;5080769;27;45304;-71
2022/07/15 07:53:23;;;;;;;;;2.50;2.50;;;;;26.03;31.66;102053.56;5080553;27;45516;-72
2022/07/15 07:55:49;;;;;;;;;2.67;2.00;;;;;26.31;32.37;102052.75;5079620;27;67885;-72
2022/07/15 07:58:16;;;;;;;;;2.00;2.00;;;;;26.73;31.84;102052.28;5079964;27;45426;-72
2022/07/15 08:00:42;;;;;;;;;4.00;4.00;;;;;27.07;30.14;102049.75;5080121;27;45337;-72
2022/07/15 08:03:08;;;;;;;;;1.33;1.33;;;;;27.52;29.57;102052.53;5080364;27;45674;-73
2022/07/15 08:05:33;;;;;;;;;2.00;2.00;;;;;28.21;29.22;102049.94;5080557;27;45583;-72
2022/07/15 08:08:13;;;;;;;;;1.67;1.67;;;;;28.99;27.51;102048.00;5079696;27;57889;-72
2022/07/15 08:10:43;;;;;;;;;3.33;3.33;;;;;29.39;25.40;102046.34;5080137;27;45578;-72
2022/07/15 08:13:08;;;;;;;;;3.00;1.67;;;;;29.81;26.48;102047.16;5080147;27;45699;-73
2022/07/15 08:15:34;;;;;;;;;2.00;2.00;;;;;30.10;24.32;102037.53;5079749;27;45393;-73
2022/07/15 08:18:00;;;;;;;;;0.67;0.67;;;;;30.27;23.89;102041.06;5079939;27;46638;-72
2022/07/15 08:20:25;;;;;;;;;1.67;1.67;;;;;30.41;23.76;102042.19;5079965;27;45405;-72
2022/07/15 08:22:57;;;;;;;;;0.00;0.00;;;;;30.87;24.41;102038.72;5079964;27;45810;-72
2022/07/15 08:25:23;;;;;;;;;1.00;1.00;;;;;31.41;24.99;102046.06;5079718;27;45891;-72
2022/07/15 08:27:48;;;;;;;;;0.33;0.33;;;;;31.73;22.25;102044.91;5079483;27;45431;-71
2022/07/15 08:30:14;;;;;;;;;3.00;1.67;;;;;32.07;21.76;102039.91;5079636;27;45497;-72
2022/07/15 08:32:40;;;;;;;;;0.00;0.00;;;;;32.51;22.12;102040.94;5079942;27;45417;-72
2022/07/15 08:35:05;;;;;;;;;1.00;1.00;;;;;32.89;21.42;102044.34;5079350;27;56340;-73
2022/07/15 08:37:31;;;;;;;;;1.00;1.00;;;;;32.93;20.43;102044.81;5079727;27;46146;-73
2022/07/15 08:39:56;;;;;;;;;1.00;0.67;;;;;33.02;20.39;102056.56;5079033;28;65838;-73
2022/07/15 08:42:22;;;;;;;;;1.00;1.00;;;;;32.90;20.30;102046.06;5077588;28;63171;-72
2022/07/15 08:44:47;;;;;;;;;1.67;0.33;;;;;32.92;20.58;102045.84;5082669;27;45465;-73
2022/07/15 08:47:14;;;;;;;;;0.33;0.33;;;;;33.03;19.91;102047.25;5082026;28;45415;-73
2022/07/15 08:49:41;;;;;;;;;2.00;1.00;;;;;33.34;20.13;102037.78;5083265;27;45674;-73
2022/07/15 08:52:07;;;;;;;;;0.00;0.00;;;;;33.69;19.16;102037.84;5082068;28;45371;-72
2022/07/15 08:54:33;;;;;;;;;1.00;1.00;;;;;33.76;19.04;102042.38;5082259;28;45445;-72
2022/07/15 08:56:58;;;;;;;;;0.33;0.33;;;;;33.86;19.07;102030.16;5083295;27;45503;-72
2022/07/15 08:59:24;;;;;;;;;1.00;1.00;;;;;34.13;18.65;102020.09;5082850;27;45465;-71
2022/07/15 09:01:50;;;;;;;;;0.00;0.00;;;;;34.34;19.04;102027.47;5083452;27;45485;-74
2022/07/15 09:04:16;;;;;;;;;0.67;0.67;;;;;34.69;19.26;102021.81;5083347;28;45366;-73
2022/07/15 09:06:47;;;;;;;;;0.67;0.67;;;;;35.18;17.40;102016.22;5081585;28;46547;-72
2022/07/15 09:09:29;;;;;;;;;1.00;1.00;;;;;35.33;17.13;102025.13;5083043;27;45346;-73
2022/07/15 09:12:08;;;;;;;;;0.33;0.00;;;;;35.52;17.27;102017.91;5083148;28;45218;-73
2022/07/15 09:14:35;;;;;;;;;0.67;0.00;;;;;35.64;15.88;102023.63;5082973;27;45514;-72
2022/07/15 09:17:18;;;;;;;;;1.00;1.00;;;;;35.79;15.93;102026.16;5083062;27;45392;-72
2022/07/15 09:19:55;;;;;;;;;0.00;0.00;;;;;35.80;16.86;102022.34;5082958;27;45485;-72
2022/07/15 09:22:21;;;;;;;;;0.50;0.50;;;;;36.26;16.44;102029.66;5082908;27;45407;-72
2022/07/15 09:24:50;;;;;;;;;0.00;0.00;;;;;36.68;15.56;102031.19;5083349;27;45365;-72
2022/07/15 09:27:32;;;;;;;;;1.00;1.00;;;;;36.98;15.45;102030.59;5082545;28;45559;-72
2022/07/15 09:36:03;;;;;;;;;2.33;1.00;;;;;37.41;14.65;102025.13;5082793;28;45410;-73
2022/07/15 09:38:41;;;;;;;;;0.00;0.00;;;;;37.49;14.48;102015.66;5082589;27;46100;-73
2022/07/15 09:41:12;;;;;;;;;1.00;1.00;;;;;37.04;14.22;102019.47;5082777;27;45392;-72
2022/07/15 09:43:46;;;;;;;;;0.33;0.33;;;;;36.96;14.59;102016.97;5082577;27;45507;-72
2022/07/15 09:46:11;;;;;;;;;0.00;0.00;;;;;37.20;14.71;102012.50;5082815;27;45385;-72
2022/07/15 09:48:42;;;;;;;;;0.00;0.00;;;;;37.60;14.61;102016.88;5082518;27;46248;-73
2022/07/15 09:51:09;;;;;;;;;0.00;0.00;;;;;37.90;13.84;102016.13;5082390;27;45659;-72
2022/07/15 09:53:34;;;;;;;;;0.00;0.00;;;;;37.98;13.91;102017.72;5082746;27;45504;-72
2022/07/15 09:56:00;;;;;;;;;0.00;0.00;;;;;37.82;13.54;102019.22;5081614;28;45500;-72
2022/07/15 09:58:26;;;;;;;;;0.00;0.00;;;;;37.92;13.75;102019.53;5080524;28;52989;-73
2022/07/15 10:00:52;;;;;;;;;0.00;0.00;;;;;37.93;14.48;102012.03;5082388;27;50549;-72
2022/07/15 10:03:19;;;;;;;;;0.00;0.00;;;;;38.21;14.21;102011.47;5082660;27;45359;-73
2022/07/15 10:05:44;;;;;;;;;0.00;0.00;;;;;38.58;14.65;102007.78;5081214;28;45338;-73
2022/07/15 10:08:11;;;;;;;;;0.00;0.00;;;;;38.82;12.33;102009.59;5080850;28;48456;-72
2022/07/15 10:10:39;;;;;;;;;0.00;0.00;;;;;38.79;12.51;102007.28;5079876;28;77250;-73
2022/07/15 10:13:31;;;;;;;;;0.00;0.00;;;;;38.77;12.85;102008.63;5082374;27;45405;-73
2022/07/15 10:16:28;;;;;;;;;4.33;1.00;;;;;38.95;12.86;102018.81;5082521;27;45518;-74
2022/07/15 10:19:11;;;;;;;;;1.00;0.00;;;;;38.94;12.94;102009.63;5081761;27;46241;-72
2022/07/15 10:21:42;;;;;;;;;0.00;0.00;;;;;39.10;12.67;102010.00;5080729;28;45326;-72
2022/07/15 10:24:34;;;;;;;;;1.67;0.00;;;;;39.28;12.19;101995.19;5080713;28;45432;-74
2022/07/15 10:27:27;;;;;;;;;0.00;0.00;;;;;39.47;12.95;101995.91;5082108;27;45389;-74
2022/07/15 10:29:54;;;;;;;;;1.00;0.00;;;;;39.64;12.59;101996.88;5081611;28;47150;-74
2022/07/15 10:32:19;;;;;;;;;0.00;0.00;;;;;39.59;12.49;101993.94;5080492;28;45331;-73
2022/07/15 10:34:44;;;;;;;;;0.00;0.00;;;;;39.76;11.85;101984.91;5081996;27;45499;-73
2022/07/15 10:37:11;;;;;;;;;0.00;0.00;;;;;39.98;11.58;101974.78;5081951;27;45586;-74
2022/07/15 10:39:46;;;;;;;;;0.00;0.00;;;;;40.14;11.23;101981.56;5081537;27;45332;-74
2022/07/15 10:42:11;;;;;;;;;1.67;0.00;;;;;39.72;11.92;101986.47;5081368;27;45336;-75
2022/07/15 10:45:08;;;;;;;;;0.00;0.00;;;;;39.28;12.45;101981.28;5081048;27;62748;-74
2022/07/15 10:47:34;;;;;;;;;0.00;0.00;;;;;39.51;12.49;101986.00;5081441;27;45544;-74
2022/07/15 10:49:59;;;;;;;;;0.00;0.00;;;;;39.32;12.07;101983.34;5081274;28;45404;-74
2022/07/15 10:52:30;;;;;;;;;0.67;0.00;;;;;39.23;11.81;101978.38;5081259;27;45348;-73
2022/07/15 10:54:55;;;;;;;;;0.00;0.00;;;;;39.26;12.04;101964.84;5081477;27;45420;-73
2022/07/15 10:57:41;;;;;;;;;0.00;0.00;;;;;39.37;11.42;101972.34;5081343;27;45509;-74
2022/07/15 11:00:31;;;;;;;;;0.33;0.00;;;;;39.43;11.48;101972.44;5081433;27;46117;-74
2022/07/15 11:03:12;;;;;;;;;0.00;0.00;;;;;39.55;11.46;101976.06;5081210;27;45450;-75
2022/07/15 11:05:49;;;;;;;;;0.00;0.00;;;;;39.74;11.64;101965.66;5081576;27;45282;-75
2022/07/15 11:08:32;;;;;;;;;0.00;0.00;;;;;40.12;11.86;101961.44;5081133;27;45397;-74
2022/07/15 11:11:18;;;;;;;;;0.00;0.00;;;;;40.37;11.74;101968.59;5081523;27;45432;-73
2022/07/15 11:13:45;;;;;;;;;1.00;0.00;;;;;40.49;11.69;101963.81;5080684;28;45409;-73
2022/07/15 11:16:19;;;;;;;;;0.00;0.00;;;;;40.74;11.52;101959.81;5081275;27;45291;-74
2022/07/15 11:18:45;;;;;;;;;0.00;0.00;;;;;41.12;10.89;101957.38;5081035;27;45528;-73
2022/07/15 11:21:11;;;;;;;;;1.67;1.67;;;;;41.55;10.93;101958.59;5080933;27;46000;-73
2022/07/15 11:23:36;;;;;;;;;0.00;0.00;;;;;41.70;10.13;101960.75;5078561;28;67108;-74
2022/07/15 11:26:02;;;;;;;;;0.00;0.00;;;;;41.68;10.61;101946.19;5080461;27;61223;-73
2022/07/15 11:28:27;;;;;;;;;2.00;1.00;;;;;41.98;10.09;101944.91;5079828;27;67172;-72
2022/07/15 11:30:54;;;;;;;;;0.00;0.00;;;;;42.30;9.95;101936.63;5080804;27;45539;-73
2022/07/15 11:33:25;;;;;;;;;0.00;0.00;;;;;42.25;10.04;101938.53;5078466;28;71220;-74
2022/07/15 11:35:56;;;;;;;;;0.00;0.00;;;;;42.33;9.98;101935.25;5081082;28;45389;-73